Flight Track Log - Related Links

Times and Time Zones

All times are in EDT time to prevent confusion due to time zone crossing. See the CPT1940 flight status page for this flight to view local times or setup timezone preferences in your user account.

Time Position Orientation Groundspeed Altitude Reporting Facility
EDT Latitude Longitude Course Direction KTS MPH feet Rate Location/Type
Tue 11:19:57 AM 44.5100 -108.9714 132° Southeast 118 136 6,600  Level Salt Lake Center
Tue 11:20:59 AM 44.4897 -108.9369 130° Southeast 115 132 7,500 871 Climbing Salt Lake Center
Tue 11:22:01 AM 44.4628 -108.8933 131° Southeast 117 135 8,400 774 Climbing Salt Lake Center
Tue 11:23:03 AM 44.4389 -108.8542 130° Southeast 122 140 9,100 677 Climbing Salt Lake Center
Tue 11:24:05 AM 44.4133 -108.8117 130° Southeast 131 151 9,800 629 Climbing Salt Lake Center
Tue 11:25:00 AM 44.3794 -108.7842 132° Southeast  Level FlightAware Approximate
Tue 11:25:07 AM 44.3878 -108.7697 130° Southeast 137 158 10,400  Level Salt Lake Center
Tue 11:26:09 AM 44.3608 -108.7300 133° Southeast 137 158 11,000 672 Climbing Salt Lake Center
Tue 11:27:12 AM 44.3314 -108.6819 131° Southeast 137 158 11,800 672 Climbing Salt Lake Center
Tue 11:28:14 AM 44.3064 -108.6417 131° Southeast 137 158 12,400 581 Climbing Salt Lake Center
Tue 11:29:16 AM 44.2814 -108.6014 131° Southeast 137 158 13,000 290 Climbing Salt Lake Center
Tue 11:30:18 AM 44.2542 -108.5592 132° Southeast 138 159 13,000  Level Salt Lake Center
Tue 11:31:20 AM 44.2231 -108.5114 132° Southeast 149 171 13,000  Level Salt Lake Center
Tue 11:32:22 AM 44.1928 -108.4633 131° Southeast 158 182 13,000  Level Salt Lake Center
Tue 11:33:24 AM 44.1553 -108.4067 133° Southeast 162 186 13,000  Level Salt Lake Center
Tue 11:34:26 AM 44.1253 -108.3586 131° Southeast 162 186 13,000  Level Salt Lake Center
Tue 11:35:28 AM 44.0961 -108.3114 131° Southeast 162 186 13,000  Level Salt Lake Center
Tue 11:36:31 AM 44.0675 -108.2644 130° Southeast 162 186 13,000  Level Salt Lake Center
Tue 11:37:33 AM 44.0389 -108.2186 131° Southeast 162 186 13,000 -48 Level Salt Lake Center
Tue 11:38:35 AM 44.0031 -108.1633 132° Southeast 162 186 12,900 -48 Descending Salt Lake Center
Tue 11:39:37 AM 43.9744 -108.1169 131° Southeast 162 186 12,900  Level Salt Lake Center
Tue 11:40:39 AM 43.9453 -108.0706 131° Southeast 162 186 12,900  Level Salt Lake Center
Tue 11:41:41 AM 43.9156 -108.0242 132° Southeast 162 186 12,900 48 Level Salt Lake Center
Tue 11:42:43 AM 43.8869 -107.9778 131° Southeast 162 186 13,000 48 Climbing Salt Lake Center
Tue 11:43:45 AM 43.8592 -107.9328 131° Southeast 161 185 13,000  Level Salt Lake Center
Tue 11:44:47 AM 43.8264 -107.8778 130° Southeast 159 183 13,000  Level Salt Lake Center
Tue 11:45:50 AM 43.7975 -107.8303 130° Southeast 159 183 13,000  Level Salt Lake Center
Tue 11:46:52 AM 43.7686 -107.7858 132° Southeast 159 183 13,000 48 Level Salt Lake Center
Tue 11:47:54 AM 43.7400 -107.7422 132° Southeast 159 183 13,100 48 Climbing Salt Lake Center
Tue 11:48:56 AM 43.7122 -107.6989 132° Southeast 157 181 13,100  Level Salt Lake Center
Tue 11:49:58 AM 43.6775 -107.6467 133° Southeast 153 176 13,100 -48 Level Salt Lake Center
Tue 11:51:00 AM 43.6494 -107.6017 131° Southeast 153 176 13,000 -48 Descending Salt Lake Center
Tue 11:52:02 AM 43.6200 -107.5578 133° Southeast 154 177 13,000  Level Salt Lake Center
Tue 11:53:04 AM 43.5925 -107.5131 130° Southeast 153 176 13,000  Level Salt Lake Center
Tue 11:54:06 AM 43.5639 -107.4686 132° Southeast 154 177 13,000  Level Salt Lake Center
Tue 11:55:09 AM 43.5344 -107.4242 132° Southeast 154 177 13,000  Level Salt Lake Center
Tue 11:56:11 AM 43.5003 -107.3703 131° Southeast 158 182 13,000  Level Salt Lake Center
Tue 11:57:13 AM 43.4719 -107.3206 128° Southeast 162 186 13,000  Level Salt Lake Center
Tue 11:58:15 AM 43.4425 -107.2783 134° Southeast 157 181 13,000  Level Salt Lake Center
Tue 11:59:17 AM 43.4117 -107.2314 132° Southeast 163 188 13,000  Level Salt Lake Center
Tue 12:00:19 PM 43.3811 -107.1847 132° Southeast 163 188 13,000  Level Salt Lake Center
Tue 12:01:12 PM 43.3503 -107.1367 131° Southeast 164 189 13,000  Level Denver Center
Tue 12:02:15 PM 43.3186 -107.0897 133° Southeast 165 190 13,000  Level Denver Center
Tue 12:03:26 PM 43.2822 -107.0317 131° Southeast 168 193 13,000 -90 Level Salt Lake Center
Tue 12:04:28 PM 43.2483 -106.9886 137° Southeast 167 192 12,800 -581 Descending Salt Lake Center
Tue 12:05:30 PM 43.2083 -106.9294 133° Southeast 181 208 11,800 -823 Descending Salt Lake Center
Tue 12:06:32 PM 43.1733 -106.8761 132° Southeast 190 219 11,100 -726 Descending Salt Lake Center
Tue 12:07:34 PM 43.1383 -106.8247 133° Southeast 192 221 10,300 -783 Descending Salt Lake Center
Tue 12:08:27 PM 43.1072 -106.7706 128° Southeast 191 220 9,600 -835 Descending Denver Center
Tue 12:09:29 PM 43.0789 -106.7147 125° Southeast 191 220 8,700 -919 Descending Denver Center
Tue 12:10:31 PM 43.0481 -106.6447 121° Southeast 191 220 7,700 -774 Descending Denver Center
Tue 12:11:33 PM 43.0200 -106.5917 126° Southeast 188 216 7,100 -339 Descending Denver Center
Tue 12:12:35 PM 42.9886 -106.5344 127° Southeast 176 203 7,000 -145 Descending Denver Center
Tue 12:13:37 PM 42.9622 -106.4900 129° Southeast 166 191 6,800 -240 Descending Denver Center
Tue 12:14:40 PM 42.9289 -106.4514 140° Southeast 157 181 6,500 -286 Descending Denver Center

Login

Don't have an account? Register now (free) for customized features, flight alerts, and more!